Time;durP1;ratioP1;P1;durP2;ratioP2;P2;SDS_P1;SDS_P2;PMS_P1;PMS_P2;Temp;Humidity;BMP_temperature;BMP_pressure;BME280_temperature;BME280_humidity;BME280_pressure;Samples;Min_cycle;Max_cycle;Signal;HPM_P1;HPM_P2
2020/12/17 00:00:24;;;;;;;119.10;48.42;;;;;;;5.91;78.84;100521.84;5096091;28;20459;-45
2020/12/17 00:02:59;;;;;;;123.13;51.33;;;;;;;5.93;78.66;100520.16;5095896;28;20472;-46
2020/12/17 00:05:25;;;;;;;109.25;47.50;;;;;;;5.92;78.47;100519.28;5096024;28;20052;-45
2020/12/17 00:07:51;;;;;;;127.82;54.60;;;;;;;5.90;78.39;100517.50;5096124;28;20047;-45
2020/12/17 00:10:17;;;;;;;102.88;47.67;;;;;;;5.88;78.47;100522.69;5096123;28;20124;-45
2020/12/17 00:12:44;;;;;;;103.07;46.83;;;;;;;5.88;78.59;100516.63;5096293;28;20051;-45
2020/12/17 00:15:12;;;;;;;105.82;45.33;;;;;;;5.92;78.62;100515.81;5096266;28;20058;-45
2020/12/17 00:17:49;;;;;;;99.53;45.65;;;;;;;5.94;78.29;100517.56;5096286;28;20515;-46
2020/12/17 00:20:16;;;;;;;114.07;44.67;;;;;;;5.90;78.47;100520.13;5096016;28;20040;-45
2020/12/17 00:22:42;;;;;;;109.57;46.28;;;;;;;5.86;78.50;100509.69;5096143;28;20127;-46
2020/12/17 00:25:08;;;;;;;123.25;50.55;;;;;;;5.86;78.56;100520.09;5095308;28;20079;-45
2020/12/17 00:27:36;;;;;;;160.20;71.70;;;;;;;5.83;79.00;100511.41;5095923;28;20036;-46
2020/12/17 00:30:04;;;;;;;207.93;91.75;;;;;;;5.84;78.77;100515.75;5095837;28;20193;-45
2020/12/17 00:32:29;;;;;;;164.48;70.53;;;;;;;5.79;79.09;100520.94;5095843;28;20043;-45
2020/12/17 00:34:55;;;;;;;184.98;62.22;;;;;;;5.79;78.94;100518.34;5095682;28;20051;-45
2020/12/17 00:37:21;;;;;;;195.00;66.25;;;;;;;5.82;78.65;100514.88;5096095;28;20040;-45
2020/12/17 00:39:47;;;;;;;134.23;52.80;;;;;;;5.80;79.04;100512.25;5096688;28;20048;-45
2020/12/17 00:42:13;;;;;;;135.20;47.72;;;;;;;5.82;79.03;100513.16;5099860;28;20048;-45
2020/12/17 00:44:38;;;;;;;145.52;52.47;;;;;;;5.82;78.97;100507.09;5099860;28;20415;-46
2020/12/17 00:47:04;;;;;;;165.00;54.22;;;;;;;5.82;78.87;100504.50;5099033;28;20416;-45
2020/12/17 00:49:30;;;;;;;188.55;58.05;;;;;;;5.84;79.00;100513.16;5099522;28;20147;-45
2020/12/17 00:52:00;;;;;;;185.40;57.95;;;;;;;5.73;79.53;100507.03;5098925;28;20044;-45
2020/12/17 00:54:27;;;;;;;148.73;52.70;;;;;;;5.74;79.51;100511.34;5099361;28;20116;-45
2020/12/17 00:56:53;;;;;;;114.18;45.97;;;;;;;5.67;79.67;100507.84;5098521;28;20464;-45
2020/12/17 00:59:18;;;;;;;99.53;38.25;;;;;;;5.75;79.35;100501.00;5099634;28;20063;-45
2020/12/17 01:01:44;;;;;;;104.13;43.60;;;;;;;5.76;79.59;100504.44;5099575;28;20100;-45
2020/12/17 01:04:10;;;;;;;102.97;41.30;;;;;;;5.76;79.22;100507.06;5099210;28;20058;-45
2020/12/17 01:06:36;;;;;;;113.57;44.10;;;;;;;5.76;79.51;100507.06;5099184;28;20352;-45
2020/12/17 01:09:02;;;;;;;126.22;46.47;;;;;;;5.71;79.57;100503.53;5099142;28;20058;-45
2020/12/17 01:11:29;;;;;;;130.57;44.88;;;;;;;5.78;79.22;100503.56;5099370;28;20113;-45
2020/12/17 01:13:55;;;;;;;134.20;49.42;;;;;;;5.76;79.34;100513.13;5098199;28;20048;-45
2020/12/17 01:16:20;;;;;;;147.35;52.28;;;;;;;5.74;79.33;100508.75;5099018;28;20050;-45
2020/12/17 01:18:46;;;;;;;131.60;50.72;;;;;;;5.77;79.57;100507.03;5099251;28;20056;-45
2020/12/17 01:21:12;;;;;;;128.75;49.35;;;;;;;5.76;79.60;100505.31;5097981;28;20101;-45
2020/12/17 01:23:38;;;;;;;111.53;48.22;;;;;;;5.74;79.46;100501.81;5098813;28;20058;-45
2020/12/17 01:26:10;;;;;;;109.95;44.30;;;;;;;5.82;79.02;100501.88;5099034;28;20059;-45
2020/12/17 01:28:36;;;;;;;121.53;48.75;;;;;;;5.79;79.38;100496.66;5099061;28;20056;-45
2020/12/17 01:31:08;;;;;;;115.93;45.33;;;;;;;5.82;79.23;100499.28;5099042;28;20040;-45
2020/12/17 01:33:34;;;;;;;128.35;48.70;;;;;;;5.70;79.15;100494.88;5097845;28;20044;-45
2020/12/17 01:36:04;;;;;;;133.88;53.83;;;;;;;5.80;79.19;100501.88;5098657;28;20310;-45
2020/12/17 01:38:30;;;;;;;116.85;46.65;;;;;;;5.77;79.33;100491.44;5098568;28;20047;-45
2020/12/17 01:40:56;;;;;;;114.75;50.00;;;;;;;5.76;79.17;100501.84;5098451;28;20574;-45
2020/12/17 01:43:22;;;;;;;113.53;47.72;;;;;;;5.76;79.40;100496.66;5098250;28;20055;-45
2020/12/17 01:45:48;;;;;;;105.90;45.22;;;;;;;5.73;79.23;100497.50;5097562;28;20040;-45
2020/12/17 01:48:17;;;;;;;104.55;44.95;;;;;;;5.62;79.55;100486.16;5098729;28;20032;-45
2020/12/17 01:50:46;;;;;;;105.95;43.92;;;;;;;5.70;79.66;100486.22;5098177;28;20062;-45
2020/12/17 01:53:12;;;;;;;98.03;39.38;;;;;;;5.74;79.70;100487.97;5098513;28;20109;-45
2020/12/17 01:55:38;;;;;;;101.30;41.95;;;;;;;5.74;79.11;100481.03;5098234;28;20056;-45
2020/12/17 01:58:03;;;;;;;92.30;39.58;;;;;;;5.76;79.51;100483.66;5098258;28;20047;-45
2020/12/17 02:00:36;;;;;;;93.40;41.35;;;;;;;5.74;79.28;100481.03;5098441;28;20051;-45
2020/12/17 02:03:03;;;;;;;101.22;41.63;;;;;;;5.73;79.64;100484.50;5097241;28;20101;-45
2020/12/17 02:05:29;;;;;;;101.03;41.90;;;;;;;5.75;79.27;100487.09;5098057;28;20047;-45
2020/12/17 02:07:56;;;;;;;95.18;42.13;;;;;;;5.74;79.13;100472.38;5098282;28;20044;-46
2020/12/17 02:10:22;;;;;;;100.43;44.20;;;;;;;5.66;79.82;100471.47;5097927;28;20052;-45
2020/12/17 02:12:48;;;;;;;106.60;44.20;;;;;;;5.72;79.52;100474.06;5098161;28;20062;-45
2020/12/17 02:15:15;;;;;;;100.85;42.72;;;;;;;5.74;79.24;100473.22;5098169;28;20355;-45
2020/12/17 02:17:41;;;;;;;102.57;44.47;;;;;;;5.53;80.12;100471.41;5097790;28;20496;-45
2020/12/17 02:20:07;;;;;;;96.03;40.88;;;;;;;5.62;79.63;100471.47;5097770;28;20040;-46
2020/12/17 02:22:33;;;;;;;88.70;38.80;;;;;;;5.69;79.34;100479.25;5096762;28;20391;-45
2020/12/17 02:25:00;;;;;;;121.75;48.20;;;;;;;5.60;79.33;100478.38;5097129;28;20356;-46
2020/12/17 02:27:26;;;;;;;90.95;41.63;;;;;;;5.62;79.22;100479.25;5097033;28;20048;-45
2020/12/17 02:29:52;;;;;;;94.88;41.55;;;;;;;5.60;79.18;100482.69;5097853;28;20055;-45
2020/12/17 02:32:18;;;;;;;97.90;41.10;;;;;;;5.59;79.65;100480.97;5098104;28;20040;-45
2020/12/17 02:34:44;;;;;;;95.20;39.75;;;;;;;5.61;79.46;100474.88;5097774;28;20467;-45
2020/12/17 02:37:10;;;;;;;93.78;43.40;;;;;;;5.56;79.81;100478.34;5097693;28;20113;-45
2020/12/17 02:39:36;;;;;;;100.38;41.08;;;;;;;5.45;80.53;100482.59;5080040;28;20070;-45
2020/12/17 02:42:03;;;;;;;106.60;44.20;;;;;;;5.32;80.79;100472.09;5096411;28;20048;-45
2020/12/17 02:44:28;;;;;;;92.93;40.05;;;;;;;5.38;81.15;100484.28;5097323;28;20105;-45
2020/12/17 02:46:54;;;;;;;86.80;40.00;;;;;;;5.41;81.23;100470.44;5097565;28;20130;-46
2020/12/17 02:49:20;;;;;;;94.88;41.90;;;;;;;5.48;80.61;100470.47;5097454;28;20470;-46
2020/12/17 02:51:46;;;;;;;79.40;35.58;;;;;;;5.57;80.28;100470.53;5096546;28;20096;-46
2020/12/17 02:54:11;;;;;;;103.45;42.72;;;;;;;5.60;79.92;100475.75;5097198;28;20123;-45
2020/12/17 02:56:37;;;;;;;102.53;43.72;;;;;;;5.58;79.98;100474.88;5097369;28;20051;-46
2020/12/17 02:59:03;;;;;;;94.35;43.13;;;;;;;5.55;80.03;100476.59;5097285;28;20052;-45
2020/12/17 03:01:29;;;;;;;97.70;47.03;;;;;;;5.49;80.37;100471.34;5097114;28;20444;-45
2020/12/17 03:03:55;;;;;;;98.47;45.65;;;;;;;5.55;79.88;100474.00;5096111;28;20048;-46
2020/12/17 03:06:20;;;;;;;105.22;46.70;;;;;;;5.47;80.47;100481.75;5097022;28;20052;-45
2020/12/17 03:08:46;;;;;;;88.53;43.58;;;;;;;5.54;80.00;100480.91;5096301;28;20377;-46
2020/12/17 03:11:12;;;;;;;83.20;39.80;;;;;;;5.56;80.01;100479.22;5097120;28;20433;-45
2020/12/17 03:13:38;;;;;;;85.47;39.30;;;;;;;5.59;79.82;100484.44;5096740;28;20058;-45
2020/12/17 03:16:04;;;;;;;82.80;39.15;;;;;;;5.55;79.65;100486.97;5096509;28;20063;-45
2020/12/17 03:18:29;;;;;;;80.82;38.88;;;;;;;5.54;80.21;100478.31;5096987;28;20058;-46
2020/12/17 03:20:55;;;;;;;89.93;42.13;;;;;;;5.61;79.75;100477.50;5096866;28;20048;-45
2020/12/17 03:23:21;;;;;;;76.40;39.53;;;;;;;5.60;79.66;100482.69;5096667;28;20044;-45
2020/12/17 03:25:47;;;;;;;78.22;37.75;;;;;;;5.61;79.75;100480.09;5096868;28;20048;-45
2020/12/17 03:28:12;;;;;;;84.07;38.63;;;;;;;5.63;79.56;100465.38;5096787;28;20036;-45
2020/12/17 03:30:39;;;;;;;79.38;39.15;;;;;;;5.61;79.62;100472.28;5096773;28;20048;-45
2020/12/17 03:33:05;;;;;;;77.70;38.78;;;;;;;5.62;79.27;100470.56;5078920;28;20445;-45
2020/12/17 03:35:30;;;;;;;79.43;41.10;;;;;;;5.56;79.41;100474.00;5096416;28;20067;-45
2020/12/17 03:37:59;;;;;;;83.82;38.55;;;;;;;5.57;79.65;100478.34;5096627;28;20048;-45
2020/12/17 03:40:26;;;;;;;105.32;48.90;;;;;;;5.59;79.50;100480.97;5079056;28;20044;-45
2020/12/17 03:42:52;;;;;;;127.90;58.75;;;;;;;5.63;79.13;100485.31;5096560;28;20067;-45
2020/12/17 03:45:18;;;;;;;104.70;50.13;;;;;;;5.64;78.96;100484.44;5096588;28;20075;-45
2020/12/17 03:47:44;;;;;;;95.28;46.55;;;;;;;5.60;79.15;100485.28;5095570;28;20082;-45
2020/12/17 03:50:09;;;;;;;88.13;43.28;;;;;;;5.53;79.36;100488.72;5096257;28;20388;-45
2020/12/17 03:52:35;;;;;;;82.28;42.33;;;;;;;5.51;79.28;100488.69;5096518;28;20052;-45
2020/12/17 03:55:01;;;;;;;78.38;38.92;;;;;;;5.56;79.21;100480.94;5096464;28;20089;-45
2020/12/17 03:57:27;;;;;;;80.68;42.13;;;;;;;5.57;78.90;100485.28;5096416;28;20052;-45
2020/12/17 03:59:53;;;;;;;73.88;38.03;;;;;;;5.55;78.66;100482.66;5096217;28;20079;-45
2020/12/17 04:02:18;;;;;;;75.88;37.05;;;;;;;5.50;79.11;100481.78;5095471;28;20452;-45
2020/12/17 04:04:46;;;;;;;64.50;35.97;;;;;;;5.51;79.10;100483.50;5095126;28;20056;-45
2020/12/17 04:07:13;;;;;;;70.82;36.35;;;;;;;5.52;78.66;100486.97;5096159;28;20063;-45
2020/12/17 04:09:42;;;;;;;68.38;37.03;;;;;;;5.54;78.79;100485.25;5096345;28;20094;-45
2020/12/17 04:12:08;;;;;;;80.30;39.60;;;;;;;5.48;79.09;100487.81;5096329;28;20059;-45
2020/12/17 04:14:34;;;;;;;68.43;37.63;;;;;;;5.52;79.16;100485.22;5098452;28;20371;-45
2020/12/17 04:16:59;;;;;;;73.97;40.67;;;;;;;5.50;79.14;100489.56;5100151;28;20094;-45
2020/12/17 04:19:25;;;;;;;80.30;41.35;;;;;;;5.54;79.04;100477.47;5101145;28;20055;-45
2020/12/17 04:21:52;;;;;;;75.63;40.15;;;;;;;5.47;78.98;100475.69;5100280;28;20341;-45
2020/12/17 04:24:17;;;;;;;77.53;40.90;;;;;;;5.52;79.13;100472.22;5100289;28;20040;-45
2020/12/17 04:26:51;;;;;;;72.60;38.22;;;;;;;5.46;78.91;100471.31;5100215;28;20036;-45
2020/12/17 04:29:17;;;;;;;69.53;35.80;;;;;;;5.45;79.37;100461.81;5099391;28;20055;-45
2020/12/17 04:31:43;;;;;;;72.05;36.00;;;;;;;5.47;79.08;100465.28;5100202;28;20044;-45
2020/12/17 04:34:08;;;;;;;65.72;32.53;;;;;;;5.45;78.86;100472.19;5099854;28;20044;-45
2020/12/17 04:36:34;;;;;;;87.82;37.38;;;;;;;5.45;79.28;100464.41;5098883;28;20048;-45
2020/12/17 04:39:01;;;;;;;75.97;36.88;;;;;;;5.44;79.24;100460.94;5100035;28;20052;-45
2020/12/17 04:41:26;;;;;;;89.68;39.88;;;;;;;5.50;78.98;100460.13;5099708;28;20044;-45
2020/12/17 04:43:52;;;;;;;70.70;35.85;;;;;;;5.49;78.84;100459.25;5082010;28;20347;-45
2020/12/17 04:46:19;;;;;;;91.28;42.08;;;;;;;5.51;78.82;100465.31;5081936;28;20436;-45
2020/12/17 04:48:46;;;;;;;91.35;42.83;;;;;;;5.58;78.55;100463.63;5100276;28;20052;-45
2020/12/17 04:51:12;;;;;;;83.25;38.67;;;;;;;5.53;78.66;100450.59;5099796;28;20055;-45
2020/12/17 04:53:38;;;;;;;97.63;45.40;;;;;;;5.54;78.34;100465.31;5098592;28;20367;-45
2020/12/17 04:56:04;;;;;;;129.50;49.50;;;;;;;5.48;78.35;100457.50;5098837;28;20109;-45
2020/12/17 04:58:31;;;;;;;96.13;42.78;;;;;;;5.48;78.75;100467.88;5081595;28;20059;-45
2020/12/17 05:00:57;;;;;;;95.72;43.58;;;;;;;5.45;78.69;100454.88;5081843;28;20055;-45
2020/12/17 05:03:23;;;;;;;95.35;44.25;;;;;;;5.46;78.45;100454.03;5099058;28;20055;-45
2020/12/17 05:05:52;;;;;;;95.53;45.40;;;;;;;5.45;78.53;100448.81;5099243;28;20356;-45
2020/12/17 05:08:19;;;;;;;96.00;41.60;;;;;;;5.41;78.71;100455.72;5098915;28;20040;-45
2020/12/17 05:10:45;;;;;;;83.47;39.88;;;;;;;5.38;78.77;100453.09;5098332;28;20032;-45
2020/12/17 05:13:11;;;;;;;73.63;39.03;;;;;;;5.41;78.71;100457.47;5099382;28;20123;-45
2020/12/17 05:15:37;;;;;;;86.50;42.33;;;;;;;5.42;78.63;100446.19;5098533;28;20456;-45
2020/12/17 05:18:06;;;;;;;86.53;40.95;;;;;;;5.36;78.76;100449.63;5098450;28;20139;-45
2020/12/17 05:20:36;;;;;;;84.80;42.85;;;;;;;5.38;78.76;100448.78;5098925;28;20047;-45
2020/12/17 05:23:03;;;;;;;92.20;44.60;;;;;;;5.36;78.96;100449.63;5082569;28;20058;-45
2020/12/17 05:25:29;;;;;;;84.18;42.65;;;;;;;5.38;78.65;100451.38;5097478;28;20044;-45
2020/12/17 05:27:55;;;;;;;82.68;42.22;;;;;;;5.34;78.94;100451.34;5098023;28;20044;-45
2020/12/17 05:30:30;;;;;;;115.90;51.70;;;;;;;5.37;78.56;100452.25;5099024;28;20062;-45
2020/12/17 05:32:57;;;;;;;127.63;53.53;;;;;;;5.30;79.01;100452.22;5099033;28;20344;-45
2020/12/17 05:35:23;;;;;;;109.60;51.83;;;;;;;5.33;78.75;100458.28;5081048;28;20439;-45
2020/12/17 05:37:48;;;;;;;127.60;56.70;;;;;;;5.31;78.64;100453.94;5098922;28;20047;-45
2020/12/17 05:40:14;;;;;;;134.15;54.50;;;;;;;5.26;79.15;100450.41;5081255;28;20047;-45
2020/12/17 05:42:41;;;;;;;143.32;60.78;;;;;;;5.25;79.34;100444.38;5098691;28;20044;-45
2020/12/17 05:45:26;;;;;;;134.98;60.28;;;;;;;5.28;78.84;100444.38;5097899;28;20048;-45
2020/12/17 05:48:11;;;;;;;125.28;60.47;;;;;;;5.22;79.31;100446.06;5097854;28;20052;-45
2020/12/17 05:50:59;;;;;;;122.68;59.50;;;;;;;5.16;79.17;100442.56;5098742;28;20040;-45
2020/12/17 05:53:26;;;;;;;131.23;61.30;;;;;;;5.18;79.79;100445.19;5097913;28;20094;-45
2020/12/17 05:56:00;;;;;;;119.70;59.40;;;;;;;5.20;79.55;100448.69;5098589;28;20068;-45
2020/12/17 05:58:39;;;;;;;112.13;52.85;;;;;;;5.25;79.37;100454.75;5099116;28;20059;-45
2020/12/17 06:01:08;;;;;;;113.90;55.67;;;;;;;5.22;79.55;100457.31;5098341;28;20054;-45
2020/12/17 06:03:34;;;;;;;115.68;53.03;;;;;;;5.19;80.08;100459.03;5097262;28;20060;-45
2020/12/17 06:06:00;;;;;;;116.78;53.50;;;;;;;5.15;79.55;100458.16;5098073;28;20451;-45
2020/12/17 06:08:26;;;;;;;101.38;47.97;;;;;;;5.14;79.86;100454.69;5098002;28;20341;-45
2020/12/17 06:10:52;;;;;;;108.40;51.45;;;;;;;5.27;79.73;100460.84;5064051;28;20055;-45
2020/12/17 06:13:18;;;;;;;118.85;51.70;;;;;;;5.28;79.45;100464.31;5080311;28;20036;-45
2020/12/17 06:15:45;;;;;;;96.47;44.55;;;;;;;5.32;79.57;100474.72;5097352;28;20052;-45
2020/12/17 06:18:11;;;;;;;111.18;48.47;;;;;;;5.31;79.36;100472.97;5098118;28;20109;-45
2020/12/17 06:20:37;;;;;;;91.97;43.53;;;;;;;5.38;79.31;100479.94;5097269;28;20458;-45
2020/12/17 06:23:04;;;;;;;99.45;45.47;;;;;;;5.42;79.05;100480.84;5097984;28;20040;-45
2020/12/17 06:25:31;;;;;;;98.60;46.03;;;;;;;5.44;79.14;100489.53;5098015;28;20131;-45
2020/12/17 06:27:57;;;;;;;95.10;46.85;;;;;;;5.45;78.92;100490.38;5097946;28;20059;-45
2020/12/17 06:30:27;;;;;;;108.38;52.25;;;;;;;5.51;78.68;100482.63;5097670;28;20153;-45
2020/12/17 06:32:54;;;;;;;127.50;59.05;;;;;;;5.47;78.57;100486.94;5097353;28;20044;-45
2020/12/17 06:35:48;;;;;;;108.82;52.50;;;;;;;5.45;78.63;100485.19;5097811;28;20082;-45
2020/12/17 06:38:17;;;;;;;205.88;87.35;;;;;;;5.44;78.89;100497.31;5096439;28;20466;-45
2020/12/17 06:40:43;;;;;;;543.90;203.85;;;;;;;5.42;78.82;100487.78;5097504;28;20055;-45
2020/12/17 06:43:27;;;;;;;183.57;81.00;;;;;;;5.46;78.75;100498.22;5097910;28;20416;-45
2020/12/17 06:45:53;;;;;;;134.18;61.63;;;;;;;5.43;78.59;100493.00;5079722;28;20351;-45
2020/12/17 06:48:32;;;;;;;158.40;76.97;;;;;;;5.47;78.62;100497.34;5097588;28;20044;-45
2020/12/17 06:50:59;;;;;;;144.00;65.25;;;;;;;5.45;78.58;100501.66;5097578;28;20119;-45
2020/12/17 06:53:40;;;;;;;144.02;63.63;;;;;;;5.45;78.11;100499.03;5096769;28;20048;-45
2020/12/17 06:56:14;;;;;;;157.40;67.07;;;;;;;5.45;78.78;100493.84;5097678;28;20052;-45
2020/12/17 06:58:40;;;;;;;149.43;65.50;;;;;;;5.44;78.61;100497.31;5096489;28;20056;-45
2020/12/17 07:01:06;;;;;;;126.38;56.28;;;;;;;5.42;78.70;100503.34;5062893;28;20062;-45
2020/12/17 07:03:50;;;;;;;139.63;68.00;;;;;;;5.44;78.29;100509.44;5079189;28;20056;-45
2020/12/17 07:06:20;;;;;;;157.80;70.03;;;;;;;5.47;78.63;100506.88;5097233;28;20051;-45
2020/12/17 07:08:49;;;;;;;159.45;83.95;;;;;;;5.33;78.92;100502.44;5097186;28;20117;-45
2020/12/17 07:11:37;;;;;;;139.27;67.50;;;;;;;5.44;78.65;100502.50;5095927;28;20436;-45
2020/12/17 07:14:04;;;;;;;185.52;98.03;;;;;;;5.43;78.93;100511.19;5096797;28;20052;-45
2020/12/17 07:16:30;;;;;;;153.40;82.47;;;;;;;5.50;78.71;100519.88;5079022;28;20475;-45
2020/12/17 07:19:35;;;;;;;183.52;93.13;;;;;;;5.51;78.01;100516.41;5096177;28;20048;-45
2020/12/17 07:22:10;;;;;;;172.70;81.47;;;;;;;5.39;78.51;100512.88;5096226;28;20052;-46
2020/12/17 07:24:40;;;;;;;133.68;65.82;;;;;;;5.45;78.01;100511.16;5096467;28;20063;-45
2020/12/17 07:27:08;;;;;;;150.55;70.70;;;;;;;5.48;78.09;100516.38;5096899;28;20083;-45
2020/12/17 07:29:45;;;;;;;170.15;74.78;;;;;;;5.41;77.77;100523.28;5096598;28;20043;-45
2020/12/17 07:32:44;;;;;;;185.43;82.97;;;;;;;5.36;77.95;100506.78;5096872;28;20093;-46
2020/12/17 07:35:09;;;;;;;173.32;84.10;;;;;;;5.39;78.36;100514.59;5095979;28;20051;-46
2020/12/17 07:37:36;;;;;;;148.40;70.88;;;;;;;5.42;78.14;100513.75;5097017;28;20314;-45
2020/12/17 07:40:29;;;;;;;158.80;70.45;;;;;;;5.45;77.36;100505.97;5096391;28;20356;-45
2020/12/17 07:43:13;;;;;;;180.15;74.45;;;;;;;5.48;77.75;100508.59;5096006;28;20090;-45
2020/12/17 07:45:57;;;;;;;206.40;81.90;;;;;;;5.58;77.09;100510.41;5096945;28;20036;-45
2020/12/17 07:48:54;;;;;;;170.60;74.13;;;;;;;5.55;77.08;100506.03;5095653;28;20055;-46
2020/12/17 07:51:27;;;;;;;148.30;67.53;;;;;;;5.48;77.61;100506.00;5096398;28;20040;-45
2020/12/17 07:53:54;;;;;;;195.10;83.18;;;;;;;5.59;77.29;100518.22;5095684;28;20066;-45
2020/12/17 07:56:20;;;;;;;191.02;82.57;;;;;;;5.59;77.10;100522.53;5095318;28;20437;-45
2020/12/17 07:58:46;;;;;;;187.25;85.93;;;;;;;5.65;77.12;100525.16;5095270;28;20056;-52
2020/12/17 08:01:13;;;;;;;174.18;80.35;;;;;;;5.68;76.71;100526.91;5095768;28;20078;-52
2020/12/17 08:03:42;;;;;;;163.35;80.85;;;;;;;5.65;76.52;100519.09;5096108;28;20048;-54
2020/12/17 08:06:09;;;;;;;137.43;67.70;;;;;;;5.70;76.37;100526.06;5095487;28;20048;-53
2020/12/17 08:08:35;;;;;;;107.82;56.25;;;;;;;5.80;75.66;100530.47;5096667;28;20489;-53
2020/12/17 08:11:02;;;;;;;104.20;53.33;;;;;;;5.76;75.42;100527.84;5095214;28;20048;-53
2020/12/17 08:13:27;;;;;;;150.10;72.43;;;;;;;5.74;75.45;100522.63;5096335;28;20075;-53
2020/12/17 08:15:54;;;;;;;222.85;106.80;;;;;;;5.67;75.62;100520.84;5096566;28;20442;-53
2020/12/17 08:18:26;;;;;;;86.70;42.63;;;;;;;5.78;74.01;100520.91;5096042;28;20044;-53
2020/12/17 08:21:09;;;;;;;88.95;45.75;;;;;;;5.73;73.62;100520.03;5096300;28;20131;-54
2020/12/17 08:23:36;;;;;;;71.18;37.65;;;;;;;5.73;73.47;100510.50;5095974;28;20070;-54
2020/12/17 08:26:03;;;;;;;124.32;68.47;;;;;;;5.58;73.88;100516.44;5095230;28;20321;-53
2020/12/17 08:28:32;;;;;;;95.97;51.50;;;;;;;5.68;73.01;100514.78;5095939;28;20047;-53
2020/12/17 08:31:05;;;;;;;68.82;36.05;;;;;;;5.72;73.16;100518.25;5078710;28;20044;-53
2020/12/17 08:33:32;;;;;;;68.57;35.30;;;;;;;5.67;73.33;100515.66;5096147;28;20445;-53
2020/12/17 08:36:03;;;;;;;77.82;41.80;;;;;;;5.71;72.98;100513.94;5078262;28;20040;-53
2020/12/17 08:38:29;;;;;;;65.55;34.83;;;;;;;5.70;72.97;100514.81;5096069;28;20048;-53
2020/12/17 08:40:55;;;;;;;69.55;35.92;;;;;;;5.66;72.59;100513.94;5094871;28;20044;-53
2020/12/17 08:43:21;;;;;;;108.40;54.85;;;;;;;5.65;73.30;100519.09;5094861;28;20131;-53
2020/12/17 08:45:47;;;;;;;85.50;47.08;;;;;;;5.72;72.91;100513.97;5095695;28;20127;-53
2020/12/17 08:48:15;;;;;;;89.43;44.13;;;;;;;5.77;72.25;100524.38;5077907;28;20048;-53
2020/12/17 08:50:42;;;;;;;94.10;39.40;;;;;;;5.81;72.11;100521.78;5078121;28;20123;-53
2020/12/17 08:53:18;;;;;;;107.30;41.20;;;;;;;5.78;72.04;100526.97;5078473;28;20048;-53
2020/12/17 08:55:44;;;;;;;165.32;87.00;;;;;;;5.74;71.96;100524.34;5096494;28;20044;-53
2020/12/17 08:58:10;;;;;;;122.78;53.85;;;;;;;5.71;71.81;100520.00;5095606;28;20086;-53
2020/12/17 09:00:36;;;;;;;115.97;46.90;;;;;;;5.75;71.83;100520.88;5096286;28;20040;-53
2020/12/17 09:03:02;;;;;;;77.68;36.47;;;;;;;5.74;71.31;100527.81;5099093;28;20112;-53
2020/12/17 09:05:28;;;;;;;68.03;35.55;;;;;;;5.79;70.78;100528.72;5100361;28;20056;-53
2020/12/17 09:07:54;;;;;;;50.58;28.63;;;;;;;5.82;70.66;100523.56;5099306;28;20450;-53
2020/12/17 09:10:20;;;;;;;51.72;27.60;;;;;;;5.81;71.00;100528.72;5099196;28;20039;-53
2020/12/17 09:12:47;;;;;;;53.25;27.63;;;;;;;5.77;71.16;100527.84;5099717;28;20313;-53
2020/12/17 09:15:13;;;;;;;57.92;29.75;;;;;;;5.85;70.80;100525.31;5081756;28;20068;-46
2020/12/17 09:17:39;;;;;;;55.45;30.65;;;;;;;5.80;70.32;100521.78;5082015;28;20037;-46
2020/12/17 09:20:15;;;;;;;56.03;31.48;;;;;;;5.86;69.78;100524.44;5098089;28;20048;-46
2020/12/17 09:22:40;;;;;;;56.55;30.02;;;;;;;5.85;69.74;100520.97;5099270;28;20051;-46
2020/12/17 09:25:06;;;;;;;61.97;32.15;;;;;;;5.84;70.13;100524.41;5099166;28;20071;-46
2020/12/17 09:27:36;;;;;;;58.65;30.80;;;;;;;6.01;69.44;100521.06;5099117;28;20048;-46
2020/12/17 09:30:08;;;;;;;79.15;39.17;;;;;;;6.05;69.37;100523.69;5099053;28;20381;-46
2020/12/17 09:32:39;;;;;;;80.60;40.25;;;;;;;6.04;69.57;100516.75;5097960;28;20044;-46
2020/12/17 09:35:12;;;;;;;102.50;50.53;;;;;;;6.10;69.14;100515.91;5098696;28;20044;-46
2020/12/17 09:37:39;;;;;;;82.35;40.25;;;;;;;6.13;69.30;100521.13;5098646;28;20510;-46
2020/12/17 09:40:06;;;;;;;84.38;41.45;;;;;;;6.20;68.07;100515.06;5098893;28;20063;-46
2020/12/17 09:42:31;;;;;;;60.78;31.42;;;;;;;6.33;67.87;100519.47;5098795;28;20395;-46
2020/12/17 09:44:57;;;;;;;78.57;37.00;;;;;;;6.33;67.38;100516.84;5098737;28;20078;-46
2020/12/17 09:47:33;;;;;;;99.32;48.70;;;;;;;6.24;67.78;100510.75;5081272;28;20103;-46
2020/12/17 09:50:15;;;;;;;83.60;40.25;;;;;;;6.28;67.95;100508.19;5098668;28;20063;-46
2020/12/17 09:52:41;;;;;;;88.87;37.40;;;;;;;6.27;68.46;100502.97;5098378;28;20051;-46
2020/12/17 09:55:07;;;;;;;70.43;34.80;;;;;;;6.47;67.52;100495.25;5098863;28;20366;-46
2020/12/17 09:57:43;;;;;;;63.42;32.00;;;;;;;6.55;67.17;100486.56;5098536;28;20051;-46
2020/12/17 10:00:13;;;;;;;71.47;35.72;;;;;;;6.58;67.33;100488.31;5098591;28;20036;-46
2020/12/17 10:02:40;;;;;;;66.32;34.42;;;;;;;6.50;67.28;100488.31;5098174;28;20040;-46
2020/12/17 10:05:06;;;;;;;53.83;28.42;;;;;;;6.65;66.72;100482.25;5098505;28;20043;-46
2020/12/17 10:07:33;;;;;;;50.65;28.73;;;;;;;6.85;65.73;100490.06;5098385;28;20064;-46
2020/12/17 10:09:58;;;;;;;52.60;28.25;;;;;;;6.91;65.09;100482.28;5098756;28;20067;-54
2020/12/17 10:12:24;;;;;;;58.08;30.60;;;;;;;6.82;65.88;100489.22;5098790;28;20051;-54
2020/12/17 10:14:50;;;;;;;51.08;26.92;;;;;;;6.90;65.73;100500.50;5097406;28;20036;-53
2020/12/17 10:17:16;;;;;;;48.92;27.17;;;;;;;6.96;65.61;100492.72;5098176;28;20116;-54
2020/12/17 10:19:42;;;;;;;54.75;27.80;;;;;;;6.97;66.04;100490.09;5097058;28;20044;-53
2020/12/17 10:22:08;;;;;;;56.88;29.17;;;;;;;6.94;65.38;100491.81;5097786;28;20071;-54
2020/12/17 10:24:33;;;;;;;58.78;34.28;;;;;;;6.95;65.01;100483.13;5097829;28;20044;-54
2020/12/17 10:27:00;;;;;;;52.60;26.52;;;;;;;6.93;65.36;100484.91;5097684;28;20100;-54
2020/12/17 10:29:26;;;;;;;66.88;30.27;;;;;;;6.81;65.87;100483.13;5096763;28;20456;-54
2020/12/17 10:31:52;;;;;;;70.57;32.50;;;;;;;6.87;65.80;100472.72;5097885;28;20040;-54
2020/12/17 10:34:18;;;;;;;52.95;28.38;;;;;;;6.93;65.81;100474.47;5097017;28;20060;-54
2020/12/17 10:36:44;;;;;;;49.95;25.30;;;;;;;7.08;65.32;100471.84;5097504;28;20052;-54
2020/12/17 10:39:11;;;;;;;43.60;25.65;;;;;;;7.08;64.47;100465.78;5097774;28;20110;-54
2020/12/17 10:41:36;;;;;;;50.28;27.95;;;;;;;7.08;64.81;100465.78;5096532;28;20402;-54
2020/12/17 10:44:03;;;;;;;53.67;29.25;;;;;;;7.13;65.52;100462.31;5097646;28;20072;-54
2020/12/17 10:46:29;;;;;;;52.95;27.17;;;;;;;7.17;65.42;100464.03;5097625;28;20058;-54
2020/12/17 10:48:55;;;;;;;36.60;22.00;;;;;;;7.21;64.61;100459.69;5097226;28;20353;-54
2020/12/17 10:51:21;;;;;;;49.03;25.17;;;;;;;7.33;64.16;100451.00;5097141;28;20055;-54
2020/12/17 10:53:46;;;;;;;41.30;23.17;;;;;;;7.35;63.59;100449.25;5097223;28;20044;-54
2020/12/17 10:56:12;;;;;;;40.45;22.67;;;;;;;7.47;62.67;100455.31;5096576;28;20081;-54
2020/12/17 10:58:38;;;;;;;36.88;22.92;;;;;;;7.51;61.98;100461.41;5097404;28;20071;-54
2020/12/17 11:01:04;;;;;;;34.05;21.25;;;;;;;7.29;62.13;100457.09;5096995;28;20342;-54
2020/12/17 11:03:30;;;;;;;32.83;18.55;;;;;;;7.10;63.34;100456.22;5096767;28;20137;-54
2020/12/17 11:05:56;;;;;;;33.95;17.65;;;;;;;7.19;62.61;100462.31;5096169;28;20052;-54
2020/12/17 11:08:27;;;;;;;57.78;27.45;;;;;;;7.09;63.85;100446.69;5097523;28;20047;-54
2020/12/17 11:10:53;;;;;;;40.85;23.65;;;;;;;7.09;63.76;100454.50;5096950;28;20122;-54
2020/12/17 11:13:19;;;;;;;24.17;16.13;;;;;;;7.19;63.31;100464.06;5097162;28;20094;-54
2020/12/17 11:15:48;;;;;;;23.42;16.70;;;;;;;7.21;63.89;100451.88;5097079;28;20418;-54
2020/12/17 11:18:14;;;;;;;28.50;17.70;;;;;;;7.19;64.00;100457.09;5096831;28;20043;-54